• vieta
  • image
  • image
  • image

Šiandien

Ketvirtadienis, 18 Gruodis 2014

Orų prognozė

Šiauliai 1 °C
   

Orų prognozė aviacijai

[source: ADDS]
METAR
EYSA 180450Z 22010KT 6000 BKN003 01/01 Q1004 R14L/29//95 R14R/29//95 =
TAF
TAF EYSA 180500Z 1806/1815 21008KT 7000 BKN006 TEMPO 1806/1808 3000 BR BKN003 =
SR / SS: 06:49 / 14:00 UTC (EYSA 2014-12-18)

Lankytojai

Mes turime 4 svečius online

tic logo lt